Time;durP1;ratioP1;P1;durP2;ratioP2;P2;SDS_P1;SDS_P2;PMS_P1;PMS_P2;Temp;Humidity;BMP_temperature;BMP_pressure;BME280_temperature;BME280_humidity;BME280_pressure;Samples;Min_cycle;Max_cycle;Signal;HPM_P1;HPM_P2
2023/01/08 00:12:25;;;;;;;24.60;16.50;;;;;;;4.98;82.51;95394.84;5055388;28;20416;-86
2023/01/08 00:14:52;;;;;;;25.17;16.03;;;;;;;4.93;81.90;95391.66;5057146;28;20444;-85
2023/01/08 00:17:19;;;;;;;14.43;10.87;;;;;;;4.83;82.31;95387.88;5057093;28;20943;-85
2023/01/08 00:19:45;;;;;;;17.47;11.60;;;;;;;4.86;83.17;95385.09;5057159;28;20441;-86
2023/01/08 00:22:12;;;;;;;10.20;8.67;;;;;;;4.91;83.18;95382.25;5057193;28;20511;-86
2023/01/08 00:24:39;;;;;;;12.73;10.27;;;;;;;4.94;83.45;95388.13;5057267;28;20418;-85
2023/01/08 00:27:06;;;;;;;11.13;8.83;;;;;;;5.01;83.11;95387.78;5057337;28;20796;-85
2023/01/08 00:29:36;;;;;;;12.47;9.30;;;;;;;4.99;83.12;95390.47;5057148;28;20449;-85
2023/01/08 00:32:03;;;;;;;13.73;9.37;;;;;;;5.07;82.70;95392.66;5057098;28;20788;-86
2023/01/08 00:34:30;;;;;;;12.40;8.57;;;;;;;5.02;82.79;95389.47;5057146;28;20452;-84
2023/01/08 00:36:56;;;;;;;17.93;10.17;;;;;;;5.00;82.56;95391.31;5056907;28;20929;-86
2023/01/08 00:39:23;;;;;;;12.33;9.90;;;;;;;4.96;80.99;95386.28;5057179;28;20441;-85
2023/01/08 00:41:50;;;;;;;15.20;11.37;;;;;;;4.93;80.88;95386.47;5056879;28;20437;-86
2023/01/08 00:44:17;;;;;;;16.90;10.40;;;;;;;4.93;81.00;95385.63;5056530;28;20452;-85
2023/01/08 00:46:45;;;;;;;17.40;11.50;;;;;;;4.90;81.52;95386.59;5057364;28;20501;-86
2023/01/08 00:49:12;;;;;;;17.00;11.67;;;;;;;4.84;81.72;95386.94;5057091;28;20433;-85
2023/01/08 00:51:39;;;;;;;19.70;13.50;;;;;;;4.83;81.44;95387.88;5056542;28;20475;-85
2023/01/08 00:54:06;;;;;;;20.30;13.53;;;;;;;4.84;81.33;95386.94;5057011;28;20959;-85
2023/01/08 00:56:33;;;;;;;22.50;15.37;;;;;;;4.81;81.99;95394.06;5056406;28;20895;-85
2023/01/08 00:59:00;;;;;;;21.07;14.27;;;;;;;4.78;81.98;95386.44;5056492;28;21005;-86
2023/01/08 01:01:27;;;;;;;21.53;14.50;;;;;;;4.80;82.22;95395.84;5056792;28;20441;-86
2023/01/08 01:03:55;;;;;;;26.60;16.93;;;;;;;4.71;81.50;95395.50;5056794;28;20481;-85
2023/01/08 01:06:22;;;;;;;23.70;15.47;;;;;;;4.70;82.40;95393.81;5056676;28;20476;-86
2023/01/08 01:08:49;;;;;;;25.10;17.60;;;;;;;4.70;81.48;95389.47;5056503;28;20460;-85
2023/01/08 01:11:19;;;;;;;23.87;15.97;;;;;;;4.65;80.96;95396.66;5057182;28;20445;-85
2023/01/08 01:13:47;;;;;;;24.03;18.60;;;;;;;4.60;82.00;95398.66;5056215;28;20433;-85
2023/01/08 01:16:14;;;;;;;25.70;17.53;;;;;;;4.58;81.90;95397.91;5056773;28;20434;-86
2023/01/08 01:18:41;;;;;;;31.30;19.87;;;;;;;4.29;83.88;95392.47;5056303;28;20453;-86
2023/01/08 01:21:15;;;;;;;30.60;18.30;;;;;;;4.21;84.51;95392.03;5056279;28;20864;-85
2023/01/08 01:23:41;;;;;;;31.67;20.03;;;;;;;4.00;86.69;95390.53;5055570;28;20477;-86
2023/01/08 01:26:16;;;;;;;27.33;17.90;;;;;;;3.89;86.48;95385.91;5056754;28;20845;-85
2023/01/08 01:28:56;;;;;;;25.37;18.17;;;;;;;3.72;87.20;95391.94;5055947;28;20464;-86
2023/01/08 01:31:25;;;;;;;26.00;19.80;;;;;;;3.58;87.16;95386.59;5055931;28;20459;-85
2023/01/08 01:33:52;;;;;;;24.10;18.80;;;;;;;3.59;87.47;95390.88;5056444;28;20491;-86
2023/01/08 01:36:22;;;;;;;28.50;19.77;;;;;;;3.57;88.17;95390.13;5037475;28;20818;-86
2023/01/08 01:38:51;;;;;;;28.33;19.50;;;;;;;3.59;89.63;95390.03;5055701;28;21034;-85
2023/01/08 01:41:23;;;;;;;27.50;18.60;;;;;;;3.71;88.35;95387.66;5055826;28;20441;-86
2023/01/08 01:43:50;;;;;;;30.90;20.13;;;;;;;3.79;88.20;95376.09;5055923;28;20469;-86
2023/01/08 01:46:23;;;;;;;31.00;19.93;;;;;;;3.81;88.28;95379.44;5056008;28;20449;-86
2023/01/08 01:48:55;;;;;;;30.27;20.53;;;;;;;3.89;89.05;95374.69;5055954;28;20483;-85
2023/01/08 01:51:29;;;;;;;30.40;19.70;;;;;;;3.96;89.23;95376.03;5056409;28;20920;-86
2023/01/08 01:53:56;;;;;;;33.23;21.00;;;;;;;4.04;88.68;95379.06;5056131;28;20510;-86
2023/01/08 02:06:38;;;;;;;26.30;18.30;;;;;;;4.18;85.78;95380.97;5055241;28;20452;-86
2023/01/08 02:09:15;;;;;;;27.77;17.83;;;;;;;4.19;85.98;95367.06;5055945;28;20447;-86
2023/01/08 02:11:47;;;;;;;25.77;17.37;;;;;;;4.13;86.47;95368.25;5055522;28;20452;-86
2023/01/08 02:14:22;;;;;;;29.70;18.13;;;;;;;4.15;85.68;95366.41;5055793;28;20441;-85
2023/01/08 02:16:57;;;;;;;31.00;18.83;;;;;;;4.15;85.32;95361.22;5055481;28;20436;-85
2023/01/08 02:19:36;;;;;;;30.30;18.37;;;;;;;4.15;85.95;95355.16;5056130;28;20487;-85
2023/01/08 02:22:14;;;;;;;33.00;18.50;;;;;;;4.15;85.54;95356.00;5055503;28;20441;-85
2023/01/08 02:24:55;;;;;;;28.73;19.87;;;;;;;4.14;85.33;95351.72;5055033;28;20481;-86
2023/01/08 02:27:27;;;;;;;30.83;19.93;;;;;;;4.10;85.23;95349.38;5055381;28;20432;-86
2023/01/08 02:33:16;;;;;;;16.27;11.50;;;;;;;3.91;86.12;95342.53;5054432;28;20432;-86
2023/01/08 02:35:48;;;;;;;17.70;11.80;;;;;;;3.94;85.95;95351.91;5054130;28;20436;-85
2023/01/08 02:38:17;;;;;;;17.60;10.60;;;;;;;3.97;86.12;95338.78;5054747;28;20943;-86
2023/01/08 02:40:54;;;;;;;15.97;10.73;;;;;;;3.99;85.99;95342.13;5055002;28;20849;-85
2023/01/08 02:43:26;;;;;;;18.53;13.20;;;;;;;4.00;85.80;95336.03;5054450;28;20485;-86
2023/01/08 02:46:00;;;;;;;20.00;13.47;;;;;;;3.86;84.59;95335.91;5054896;28;20920;-86
2023/01/08 02:48:35;;;;;;;28.07;14.90;;;;;;;3.78;84.91;95338.06;5054370;28;20449;-85
2023/01/08 02:51:07;;;;;;;24.30;16.23;;;;;;;3.69;84.81;95336.75;5036071;28;20502;-85
2023/01/08 02:53:37;;;;;;;26.07;18.53;;;;;;;3.64;84.32;95337.00;5055191;28;20963;-86
2023/01/08 02:56:07;;;;;;;32.00;17.90;;;;;;;3.47;85.44;95342.22;5054721;28;20843;-86
2023/01/08 02:58:38;;;;;;;27.20;19.47;;;;;;;3.46;86.52;95342.25;5055444;28;20807;-86
2023/01/08 03:01:08;;;;;;;33.47;19.47;;;;;;;3.36;87.38;95334.09;5054048;28;20956;-86
2023/01/08 03:03:35;;;;;;;30.83;20.63;;;;;;;3.28;89.02;95342.28;5054515;28;20480;-86
2023/01/08 03:06:05;;;;;;;35.63;20.83;;;;;;;3.29;89.91;95349.13;5054383;28;20437;-85
2023/01/08 03:08:35;;;;;;;30.83;20.90;;;;;;;3.14;89.74;95356.81;5054561;28;20949;-85
2023/01/08 03:11:06;;;;;;;29.13;20.10;;;;;;;3.18;90.11;95355.75;5054176;28;20535;-85
2023/01/08 03:13:41;;;;;;;30.20;19.93;;;;;;;3.24;90.39;95351.13;5054463;28;20437;-86
2023/01/08 03:16:15;;;;;;;27.63;19.90;;;;;;;3.29;88.87;95348.28;5054485;28;20429;-86
2023/01/08 03:18:46;;;;;;;36.63;21.30;;;;;;;3.27;88.08;95339.75;5054337;28;20822;-86
2023/01/08 03:21:14;;;;;;;36.30;22.13;;;;;;;3.36;87.71;95344.47;5054560;28;20491;-85
2023/01/08 03:23:44;;;;;;;32.53;20.87;;;;;;;3.39;87.24;95352.09;5054110;28;20472;-86
2023/01/08 03:26:15;;;;;;;35.73;21.87;;;;;;;3.41;86.65;95353.69;5054024;28;20425;-85
2023/01/08 03:32:10;;;;;;;37.67;24.47;;;;;;;3.52;86.50;95353.19;5052992;28;20479;-86
2023/01/08 03:34:39;;;;;;;39.00;22.60;;;;;;;3.58;87.07;95345.09;5053744;28;20422;-86
2023/01/08 03:37:09;;;;;;;35.10;18.70;;;;;;;3.54;86.46;95347.94;5035664;28;21173;-86
2023/01/08 03:39:42;;;;;;;29.60;17.63;;;;;;;3.43;86.41;95341.50;5055013;28;20759;-86
2023/01/08 03:42:11;;;;;;;24.40;16.63;;;;;;;3.37;85.97;95340.97;5053856;28;20783;-86
2023/01/08 03:44:38;;;;;;;23.07;13.23;;;;;;;3.23;86.77;95336.47;5053586;28;20476;-86
2023/01/08 03:47:10;;;;;;;18.80;15.10;;;;;;;3.25;87.46;95334.66;5054099;28;20856;-86
2023/01/08 03:49:39;;;;;;;15.37;12.10;;;;;;;3.18;87.27;95340.19;5054147;28;20511;-86
2023/01/08 03:52:06;;;;;;;17.10;11.33;;;;;;;3.13;87.40;95332.63;5054077;28;20777;-86
2023/01/08 03:54:35;;;;;;;11.20;9.37;;;;;;;3.08;87.37;95334.63;5054154;28;20453;-86
2023/01/08 03:57:03;;;;;;;12.97;8.87;;;;;;;3.10;88.52;95349.19;5053761;28;20433;-86
2023/01/08 04:02:52;;;;;;;10.37;7.53;;;;;;;3.06;89.39;95336.44;5053603;28;20421;-86
2023/01/08 04:05:19;;;;;;;10.10;7.30;;;;;;;3.08;88.81;95332.84;5053454;28;20434;-86
2023/01/08 04:07:46;;;;;;;20.43;13.30;;;;;;;2.84;88.72;95340.97;5053488;28;20445;-86
2023/01/08 04:10:13;;;;;;;25.13;16.60;;;;;;;2.78;89.07;95349.88;5053761;28;20449;-86
2023/01/08 04:16:01;;;;;;;38.23;25.97;;;;;;;2.67;89.54;95350.38;5052801;28;20848;-86
2023/01/08 04:18:29;;;;;;;43.13;29.10;;;;;;;2.57;89.75;95353.47;5053297;28;20931;-85
2023/01/08 04:20:56;;;;;;;42.23;27.30;;;;;;;2.34;91.84;95355.38;5054016;28;20854;-86
2023/01/08 04:23:23;;;;;;;48.50;30.90;;;;;;;2.37;90.76;95363.00;5053722;28;20465;-86
2023/01/08 04:25:50;;;;;;;41.20;25.93;;;;;;;2.19;93.05;95361.22;5053285;28;20465;-85
2023/01/08 04:28:16;;;;;;;48.63;27.57;;;;;;;2.23;93.35;95359.34;5053596;28;20432;-86
2023/01/08 04:30:43;;;;;;;40.40;26.87;;;;;;;2.34;94.11;95352.78;5053722;28;20456;-85
2023/01/08 04:33:10;;;;;;;43.43;25.47;;;;;;;2.43;93.45;95356.69;5053496;28;20511;-86
2023/01/08 04:35:57;;;;;;;53.80;26.20;;;;;;;2.56;92.80;95355.22;5053661;28;20488;-86
2023/01/08 04:38:24;;;;;;;51.47;27.30;;;;;;;2.62;92.69;95354.94;5053129;28;20951;-86
2023/01/08 04:40:55;;;;;;;45.13;26.50;;;;;;;2.66;91.95;95347.88;5052946;28;21215;-86
2023/01/08 04:43:22;;;;;;;53.20;27.77;;;;;;;2.65;90.94;95357.41;5053237;28;20457;-86
2023/01/08 04:45:49;;;;;;;47.83;26.07;;;;;;;2.58;90.32;95355.13;5053756;28;20457;-86
2023/01/08 04:48:16;;;;;;;50.33;29.30;;;;;;;2.50;90.66;95352.91;5053561;28;20453;-85
2023/01/08 04:50:43;;;;;;;41.53;27.97;;;;;;;2.50;92.22;95345.13;5049910;28;20473;-86
2023/01/08 04:53:11;;;;;;;42.17;26.37;;;;;;;2.52;91.85;95351.09;5053714;28;20490;-86
2023/01/08 04:55:38;;;;;;;52.33;29.93;;;;;;;2.48;92.75;95349.56;5036365;28;20452;-86
2023/01/08 04:58:04;;;;;;;47.83;28.27;;;;;;;2.35;93.22;95353.63;5054744;28;20445;-85
2023/01/08 05:00:31;;;;;;;56.40;33.67;;;;;;;2.27;94.75;95360.88;5056942;28;20452;-85
2023/01/08 05:02:58;;;;;;;54.30;36.90;;;;;;;2.12;95.10;95357.22;5056551;28;20433;-86
2023/01/08 05:05:25;;;;;;;68.13;35.30;;;;;;;2.10;94.53;95359.91;5056530;28;20503;-86
2023/01/08 05:07:52;;;;;;;67.83;35.20;;;;;;;2.16;94.53;95363.94;5056979;28;20449;-86
2023/01/08 05:10:20;;;;;;;77.90;40.17;;;;;;;2.08;93.79;95366.88;5056944;28;20457;-86
2023/01/08 05:12:47;;;;;;;76.70;39.67;;;;;;;2.12;93.41;95363.25;5056701;28;20429;-86
2023/01/08 05:15:14;;;;;;;82.07;40.17;;;;;;;2.18;93.66;95367.31;5056422;28;20453;-86
2023/01/08 05:17:41;;;;;;;70.50;39.20;;;;;;;2.26;93.69;95366.97;5056477;28;20450;-85
2023/01/08 05:20:09;;;;;;;73.77;37.40;;;;;;;2.22;93.44;95373.19;5056847;28;20456;-86
2023/01/08 05:22:36;;;;;;;88.13;42.33;;;;;;;2.03;94.06;95368.00;5056836;28;20448;-86
2023/01/08 05:25:02;;;;;;;78.83;42.33;;;;;;;2.15;93.34;95373.47;5056400;28;20499;-86
2023/01/08 05:27:31;;;;;;;70.83;38.93;;;;;;;2.12;93.44;95360.66;5056247;28;20429;-86
2023/01/08 05:29:58;;;;;;;56.40;29.77;;;;;;;2.23;93.60;95370.53;5056716;28;20993;-86
2023/01/08 05:32:24;;;;;;;77.33;34.30;;;;;;;2.25;92.45;95373.88;5056030;28;20444;-86
2023/01/08 05:34:51;;;;;;;58.77;32.00;;;;;;;2.25;91.90;95368.72;5056614;28;20464;-85
2023/01/08 05:37:18;;;;;;;50.07;29.20;;;;;;;2.26;91.92;95360.03;5056781;28;20832;-85
2023/01/08 05:39:45;;;;;;;45.73;25.30;;;;;;;2.32;91.87;95374.47;5056666;28;20433;-86
2023/01/08 05:42:12;;;;;;;48.17;25.37;;;;;;;2.35;90.96;95374.34;5056242;28;20465;-86
2023/01/08 05:44:40;;;;;;;50.53;27.70;;;;;;;2.39;90.71;95376.72;5055843;28;20485;-86
2023/01/08 05:47:07;;;;;;;42.70;27.50;;;;;;;2.44;90.64;95369.56;5056244;28;20438;-86
2023/01/08 05:49:33;;;;;;;46.17;26.97;;;;;;;2.51;90.64;95374.47;5056366;28;20448;-86
2023/01/08 05:52:00;;;;;;;46.03;26.60;;;;;;;2.55;89.29;95371.66;5056216;28;20791;-86
2023/01/08 05:54:27;;;;;;;43.90;26.40;;;;;;;2.53;89.09;95367.47;5056202;28;20444;-85
2023/01/08 05:56:54;;;;;;;41.27;28.60;;;;;;;2.53;89.33;95364.88;5056400;28;20449;-86
2023/01/08 06:02:47;;;;;;;45.78;26.25;;;;;;;2.23;89.86;95375.72;5055069;28;20456;-86
2023/01/08 06:05:14;;;;;;;50.38;28.45;;;;;;;2.18;90.22;95365.56;5055703;28;20230;-85
2023/01/08 06:07:41;;;;;;;52.42;29.40;;;;;;;2.15;90.81;95370.03;5056005;28;20191;-86
2023/01/08 06:10:09;;;;;;;70.28;41.25;;;;;;;2.13;89.93;95379.63;5056157;28;20198;-86
2023/01/08 06:12:37;;;;;;;134.00;67.13;;;;;;;2.17;90.49;95375.97;5056127;28;20206;-87
2023/01/08 06:15:04;;;;;;;121.37;55.77;;;;;;;2.21;90.04;95377.53;5055587;28;20452;-85
2023/01/08 06:17:31;;;;;;;77.77;45.53;;;;;;;2.25;89.95;95376.47;5055562;28;20473;-85
2023/01/08 06:19:59;;;;;;;57.38;37.40;;;;;;;2.29;88.45;95375.44;5055747;28;20433;-86
2023/01/08 06:22:26;;;;;;;64.10;35.67;;;;;;;2.28;88.04;95376.34;5055366;28;20735;-86
2023/01/08 06:24:53;;;;;;;68.33;37.40;;;;;;;2.34;87.93;95380.44;5055296;28;20231;-87
2023/01/08 06:27:20;;;;;;;51.93;33.13;;;;;;;2.37;87.94;95381.13;5055294;28;20809;-87
2023/01/08 06:29:47;;;;;;;49.87;31.70;;;;;;;2.39;89.08;95375.88;5055695;28;20458;-86
2023/01/08 06:32:14;;;;;;;63.07;32.83;;;;;;;2.53;90.07;95383.00;5055646;28;20457;-87
2023/01/08 06:34:41;;;;;;;58.03;35.07;;;;;;;2.66;89.40;95384.13;5055577;28;20865;-86
2023/01/08 06:37:09;;;;;;;73.77;41.30;;;;;;;2.57;88.79;95390.56;5055419;28;20449;-86
2023/01/08 06:39:36;;;;;;;62.70;40.70;;;;;;;2.53;88.91;95388.19;5055300;28;20436;-91
2023/01/08 06:42:03;;;;;;;63.53;42.00;;;;;;;2.53;90.15;95394.19;5054969;28;20476;-86
2023/01/08 06:44:30;;;;;;;110.27;56.77;;;;;;;3.18;100.00;95389.44;5054860;28;21181;-86
2023/01/08 06:46:56;;;;;;;129.07;67.67;;;;;;;2.96;94.29;95390.50;5054897;28;20919;-86
2023/01/08 06:49:23;;;;;;;199.63;84.63;;;;;;;2.87;92.04;95390.06;5054751;28;20433;-85
2023/01/08 06:51:50;;;;;;;286.43;119.43;;;;;;;2.94;92.31;95394.91;5054410;28;20457;-83
2023/01/08 06:54:18;;;;;;;261.70;104.93;;;;;;;3.04;92.17;95397.91;5053656;28;20488;-90
2023/01/08 06:56:48;;;;;;;187.27;83.90;;;;;;;3.09;92.53;95398.50;5054369;28;20511;-85
2023/01/08 06:59:15;;;;;;;134.10;69.43;;;;;;;3.18;92.46;95403.28;5053875;28;20445;-85
2023/01/08 07:01:42;;;;;;;137.30;71.33;;;;;;;3.30;92.84;95401.84;5054229;28;20849;-84
2023/01/08 07:04:09;;;;;;;118.90;64.00;;;;;;;3.40;92.67;95397.88;5054298;28;20493;-84
2023/01/08 07:06:36;;;;;;;103.37;57.97;;;;;;;3.43;90.93;95405.50;5054088;28;20935;-84
2023/01/08 07:09:02;;;;;;;90.80;53.60;;;;;;;3.36;92.09;95396.34;5054048;28;20511;-86
2023/01/08 07:11:31;;;;;;;92.00;51.53;;;;;;;3.28;91.97;95403.66;5054911;28;20449;-89
2023/01/08 07:13:57;;;;;;;102.53;56.07;;;;;;;3.31;93.15;95408.72;5054593;28;20460;-84
2023/01/08 07:16:24;;;;;;;92.37;55.70;;;;;;;3.33;94.31;95406.88;5054178;28;20429;-83
2023/01/08 07:22:14;;;;;;;91.17;50.47;;;;;;;3.43;94.46;95411.53;5053498;28;20401;-88
2023/01/08 07:24:41;;;;;;;86.93;54.50;;;;;;;3.51;95.19;95418.97;5054813;28;20473;-84
2023/01/08 07:27:09;;;;;;;97.87;60.73;;;;;;;3.50;95.58;95417.28;5054133;28;20433;-85
2023/01/08 07:29:36;;;;;;;89.80;58.17;;;;;;;3.47;95.16;95419.16;5054105;28;20453;-85
2023/01/08 07:32:03;;;;;;;85.53;46.53;;;;;;;3.22;95.63;95410.00;5054833;28;20449;-87
2023/01/08 07:34:30;;;;;;;76.83;41.13;;;;;;;3.38;96.05;95417.88;5055022;28;20461;-87
2023/01/08 07:36:57;;;;;;;73.37;42.73;;;;;;;3.49;95.76;95415.59;5054485;28;20457;-88
2023/01/08 07:39:23;;;;;;;59.10;37.53;;;;;;;3.29;97.00;95419.16;5054320;28;20495;-87
2023/01/08 07:41:51;;;;;;;68.20;38.07;;;;;;;3.11;98.60;95423.44;5053948;28;20900;-87
2023/01/08 07:44:19;;;;;;;57.30;35.20;;;;;;;3.10;98.90;95420.94;5053893;28;20433;-86
2023/01/08 07:46:46;;;;;;;53.70;34.73;;;;;;;3.30;99.17;95430.38;5053978;28;20449;-89
2023/01/08 07:52:34;;;;;;;54.20;32.30;;;;;;;3.14;98.67;95422.47;5045522;28;20504;-86
2023/01/08 07:55:01;;;;;;;48.43;34.10;;;;;;;3.18;99.61;95428.34;5040625;28;20438;-87
2023/01/08 07:57:30;;;;;;;46.03;32.27;;;;;;;3.10;100.00;95426.13;5053639;28;20452;-87
2023/01/08 08:00:01;;;;;;;47.20;32.47;;;;;;;3.27;99.59;95420.97;5040459;28;20939;-87
2023/01/08 08:02:28;;;;;;;44.27;29.77;;;;;;;3.47;100.00;95425.22;5053283;28;20936;-91
2023/01/08 08:04:55;;;;;;;38.27;27.83;;;;;;;3.63;99.21;95417.50;5054114;28;20478;-88
2023/01/08 08:07:22;;;;;;;40.70;27.97;;;;;;;3.85;98.64;95419.88;5054114;28;20468;-86
2023/01/08 08:09:51;;;;;;;37.53;25.67;;;;;;;4.02;96.63;95423.28;5053778;28;20452;-86
2023/01/08 08:12:18;;;;;;;36.27;23.50;;;;;;;4.14;96.66;95421.84;5031660;28;20813;-85
2023/01/08 08:24:51;;;;;;;42.80;24.87;;;;;;;4.57;94.40;95430.00;5048024;28;20825;-85
2023/01/08 08:27:19;;;;;;;38.20;26.20;;;;;;;4.64;94.22;95419.22;5048714;28;20441;-85
2023/01/08 08:29:46;;;;;;;37.63;27.13;;;;;;;4.79;94.25;95424.50;5053907;28;20453;-84
2023/01/08 08:32:13;;;;;;;46.43;27.80;;;;;;;4.83;93.10;95429.47;5053499;28;20433;-84
2023/01/08 08:34:39;;;;;;;37.10;24.57;;;;;;;5.00;92.13;95423.38;5056937;28;20477;-84
2023/01/08 08:37:07;;;;;;;29.80;22.60;;;;;;;5.11;92.11;95425.38;5057256;28;20434;-83
2023/01/08 08:39:34;;;;;;;52.33;26.60;;;;;;;5.04;92.24;95429.22;5057218;28;20437;-86
2023/01/08 08:48:46;;;;;;;35.00;22.00;;;;;;;4.51;95.36;95425.13;5056384;28;20566;-86
2023/01/08 08:51:14;;;;;;;39.87;25.60;;;;;;;4.42;97.59;95423.03;5057205;28;20457;-86
2023/01/08 08:53:47;;;;;;;38.83;26.17;;;;;;;4.74;96.56;95421.31;5057140;28;20892;-86
2023/01/08 08:56:14;;;;;;;45.45;31.50;;;;;;;4.86;96.20;95426.69;5055128;28;20519;-86
2023/01/08 08:58:41;;;;;;;48.13;29.70;;;;;;;5.02;94.94;95426.72;5056914;28;20201;-82
2023/01/08 09:01:08;;;;;;;38.87;26.90;;;;;;;5.10;93.96;95423.69;5038285;28;20487;-84
2023/01/08 09:03:35;;;;;;;43.33;29.40;;;;;;;5.20;93.17;95419.66;5056533;28;20491;-84
2023/01/08 09:09:26;;;;;;;42.43;28.70;;;;;;;5.36;93.40;95420.50;5055901;28;20489;-89
2023/01/08 09:11:54;;;;;;;42.30;27.63;;;;;;;5.45;92.13;95416.53;5056164;28;20463;-87
2023/01/08 09:14:21;;;;;;;35.37;24.60;;;;;;;5.43;91.70;95416.59;5056832;28;20452;-90
2023/01/08 09:16:48;;;;;;;36.97;23.77;;;;;;;5.42;91.19;95412.34;5055939;28;20449;-83
2023/01/08 09:19:17;;;;;;;36.33;24.47;;;;;;;5.26;90.67;95412.38;5055642;28;20498;-84
2023/01/08 09:21:44;;;;;;;41.90;24.77;;;;;;;6.52;100.00;95398.09;5053997;28;20457;-85
2023/01/08 09:24:11;;;;;;;31.00;24.33;;;;;;;6.47;100.00;95402.75;5055959;28;20461;-82
2023/01/08 09:26:39;;;;;;;29.97;20.93;;;;;;;6.10;93.56;95406.72;5055132;28;21227;-83
2023/01/08 09:29:06;;;;;;;35.30;21.03;;;;;;;6.06;91.20;95397.41;5054919;28;20499;-82
2023/01/08 09:31:34;;;;;;;28.40;19.93;;;;;;;6.14;90.25;95396.03;5055000;28;20944;-80
2023/01/08 09:34:01;;;;;;;30.87;21.00;;;;;;;6.35;92.97;95391.28;5020625;28;20442;-83
2023/01/08 09:36:28;;;;;;;34.07;19.60;;;;;;;6.33;89.22;95392.31;5055654;28;20487;-88
2023/01/08 09:38:55;;;;;;;33.17;20.17;;;;;;;6.42;88.58;95392.63;5053570;28;20487;-81
2023/01/08 09:41:27;;;;;;;25.10;19.37;;;;;;;6.53;89.42;95381.53;5053972;28;20454;-87
2023/01/08 09:43:59;;;;;;;30.13;19.70;;;;;;;6.66;88.00;95379.88;5054652;28;20449;-85
2023/01/08 09:46:28;;;;;;;28.33;19.50;;;;;;;6.86;88.18;95375.16;5055704;28;20478;-85
2023/01/08 09:48:59;;;;;;;24.97;19.17;;;;;;;7.07;87.86;95366.00;5055039;28;20457;-87
2023/01/08 09:51:31;;;;;;;32.73;20.27;;;;;;;7.24;86.11;95360.53;5055690;28;20458;-85
2023/01/08 09:53:58;;;;;;;25.70;17.27;;;;;;;7.35;85.48;95349.41;5055289;28;20484;-85
2023/01/08 09:56:25;;;;;;;22.80;17.57;;;;;;;7.43;84.33;95353.19;5055425;28;21030;-83
2023/01/08 09:58:55;;;;;;;23.03;17.27;;;;;;;7.62;84.19;95345.00;5054935;28;20442;-83
2023/01/08 10:01:25;;;;;;;26.63;17.23;;;;;;;7.66;81.68;95343.00;5055606;28;20860;-84
2023/01/08 10:17:27;;;;;;;28.77;20.47;;;;;;;8.11;79.06;95325.19;5054953;28;20427;-85
2023/01/08 10:19:54;;;;;;;31.37;18.20;;;;;;;8.20;79.14;95329.78;5021248;28;20903;-85
2023/01/08 10:22:23;;;;;;;32.47;20.50;;;;;;;8.21;78.51;95316.63;5055554;28;20880;-85
2023/01/08 10:24:50;;;;;;;28.00;19.40;;;;;;;8.17;79.13;95319.56;5055625;28;20769;-87
2023/01/08 10:27:19;;;;;;;26.03;18.20;;;;;;;8.27;79.03;95315.34;5055020;28;20447;-86
2023/01/08 10:29:46;;;;;;;33.17;20.90;;;;;;;8.22;79.09;95309.59;5055048;28;20438;-89
2023/01/08 10:35:39;;;;;;;29.90;20.20;;;;;;;8.32;81.16;95303.63;5054749;28;20886;-88
2023/01/08 10:38:06;;;;;;;27.27;15.03;;;;;;;8.45;76.79;95294.97;5055254;28;20867;-87
2023/01/08 10:40:37;;;;;;;22.30;16.87;;;;;;;8.54;78.21;95291.72;5055161;28;20455;-89
2023/01/08 10:43:12;;;;;;;30.80;18.27;;;;;;;8.57;77.26;95286.25;5055026;28;20439;-88
2023/01/08 10:45:40;;;;;;;30.47;19.23;;;;;;;8.56;76.41;95279.34;5054754;28;20474;-88
2023/01/08 10:48:15;;;;;;;33.57;21.30;;;;;;;8.59;76.81;95290.44;5055474;28;20467;-89
2023/01/08 10:50:44;;;;;;;31.23;21.00;;;;;;;8.52;76.12;95278.75;5055489;28;20461;-89
2023/01/08 10:53:24;;;;;;;31.17;20.13;;;;;;;8.57;76.42;95268.78;5055171;28;20469;-89
2023/01/08 10:55:58;;;;;;;24.60;18.03;;;;;;;8.45;76.39;95269.66;5054681;28;20505;-88
2023/01/08 10:58:25;;;;;;;19.93;15.40;;;;;;;8.35;75.48;95266.00;5054719;28;20547;-89
2023/01/08 11:00:52;;;;;;;41.07;19.20;;;;;;;8.19;76.76;95252.31;5055231;28;20463;-88
2023/01/08 11:03:25;;;;;;;30.77;18.00;;;;;;;8.27;77.28;95258.66;5054954;28;20855;-88
2023/01/08 11:05:54;;;;;;;31.30;19.93;;;;;;;8.43;77.96;95255.88;5054943;28;20482;-89
2023/01/08 11:08:23;;;;;;;29.37;20.83;;;;;;;8.36;76.04;95257.22;5054944;28;20440;-89
2023/01/08 11:10:55;;;;;;;23.77;18.90;;;;;;;8.47;77.33;95253.88;5036645;28;20493;-89
2023/01/08 11:13:23;;;;;;;29.47;20.97;;;;;;;8.59;77.61;95256.44;5055140;28;20439;-85
2023/01/08 11:16:02;;;;;;;30.93;20.60;;;;;;;8.72;76.53;95258.19;5054263;28;20455;-85
2023/01/08 11:18:30;;;;;;;30.13;22.27;;;;;;;8.85;76.10;95248.50;5054076;28;20487;-85
2023/01/08 11:21:09;;;;;;;36.13;21.13;;;;;;;8.89;77.29;95236.84;5053914;28;20444;-88
2023/01/08 11:23:36;;;;;;;29.03;21.10;;;;;;;8.89;74.56;95236.84;5054144;28;20458;-84
2023/01/08 11:26:08;;;;;;;22.70;17.73;;;;;;;9.00;75.51;95242.16;5054338;28;20561;-89
2023/01/08 11:28:47;;;;;;;34.90;24.13;;;;;;;9.08;78.25;95244.22;5054386;28;20961;-88
2023/01/08 11:31:18;;;;;;;39.07;25.00;;;;;;;8.97;74.17;95232.75;5053932;28;20440;-85
2023/01/08 11:33:53;;;;;;;38.60;24.53;;;;;;;9.07;74.43;95245.16;5053257;28;20534;-83
2023/01/08 11:36:28;;;;;;;41.63;27.37;;;;;;;8.93;74.81;95239.13;5053153;28;20456;-83
2023/01/08 11:38:54;;;;;;;45.33;28.10;;;;;;;8.87;75.18;95230.91;5053281;28;20455;-83
2023/01/08 11:41:38;;;;;;;38.37;27.53;;;;;;;8.79;76.12;95236.69;5053500;28;20439;-83
2023/01/08 11:44:21;;;;;;;37.03;24.90;;;;;;;8.90;75.58;95220.22;5053195;28;20452;-83
2023/01/08 11:47:01;;;;;;;30.80;24.03;;;;;;;8.90;75.71;95221.03;5053244;28;20474;-83
2023/01/08 11:49:58;;;;;;;37.27;24.57;;;;;;;8.85;75.12;95225.78;5053432;28;20874;-84
2023/01/08 11:52:40;;;;;;;40.07;26.20;;;;;;;8.81;75.73;95211.25;5053484;28;20474;-84
2023/01/08 11:55:19;;;;;;;33.97;21.60;;;;;;;8.82;74.97;95219.94;5044472;28;20445;-83
2023/01/08 11:57:59;;;;;;;36.13;25.53;;;;;;;8.96;74.46;95214.53;5053783;28;20440;-85
2023/01/08 12:00:51;;;;;;;33.97;24.33;;;;;;;9.00;73.94;95208.16;5053541;28;20455;-92
2023/01/08 12:03:30;;;;;;;33.60;23.13;;;;;;;9.07;74.63;95205.91;5054175;28;20461;-92
2023/01/08 12:06:09;;;;;;;39.63;22.90;;;;;;;9.29;74.36;95211.22;5054146;28;20486;-90
2023/01/08 12:08:49;;;;;;;35.97;23.70;;;;;;;9.45;73.97;95203.03;5058601;28;20810;-90
2023/01/08 12:11:24;;;;;;;31.73;21.83;;;;;;;9.56;73.32;95203.91;5058196;28;20452;-91
2023/01/08 12:14:16;;;;;;;33.13;22.17;;;;;;;9.58;71.88;95204.63;5058489;28;20462;-92
2023/01/08 12:17:07;;;;;;;36.43;23.67;;;;;;;9.65;71.99;95189.28;5058257;28;20460;-88
2023/01/08 12:20:03;;;;;;;32.63;25.63;;;;;;;9.92;71.88;95188.94;5057394;28;20933;-87
2023/01/08 12:22:42;;;;;;;31.73;24.17;;;;;;;10.02;70.78;95191.66;5016353;28;20235;-88
2023/01/08 12:25:52;;;;;;;29.77;21.60;;;;;;;10.12;71.46;95182.13;5016052;28;20949;-87
2023/01/08 12:28:36;;;;;;;33.53;22.30;;;;;;;10.01;70.26;95182.13;4957693;29;20454;-89
2023/01/08 12:31:27;;;;;;;32.83;23.27;;;;;;;10.05;69.41;95183.56;4956984;29;20457;-85
2023/01/08 12:33:56;;;;;;;32.43;22.43;;;;;;;10.07;70.08;95181.66;4956925;29;20450;-85
2023/01/08 12:36:31;;;;;;;36.53;24.43;;;;;;;10.12;70.39;95171.63;4956664;29;20472;-86
2023/01/08 12:39:02;;;;;;;33.20;23.00;;;;;;;10.07;69.05;95171.16;4957142;29;20956;-86
2023/01/08 12:41:36;;;;;;;37.50;25.00;;;;;;;10.06;69.26;95162.47;4956606;28;20520;-86
2023/01/08 12:44:10;;;;;;;36.90;24.47;;;;;;;10.17;69.40;95172.13;4976384;28;20876;-86
2023/01/08 12:46:44;;;;;;;44.97;23.30;;;;;;;10.18;69.37;95173.81;4976101;28;20579;-86
2023/01/08 12:49:16;;;;;;;31.40;23.57;;;;;;;10.00;68.35;95159.50;4976122;28;21424;-86
2023/01/08 12:51:55;;;;;;;40.80;23.83;;;;;;;9.93;68.88;95154.75;4976158;28;20834;-86
2023/01/08 12:54:29;;;;;;;47.73;27.33;;;;;;;10.04;69.08;95156.50;4975662;28;20484;-86
2023/01/08 12:57:06;;;;;;;37.27;25.33;;;;;;;10.11;68.77;95149.81;4975605;28;20455;-85
2023/01/08 12:59:42;;;;;;;44.27;26.00;;;;;;;10.26;68.73;95153.06;4985597;28;20938;-86